sensor_id;sensor_type;location;lat;lon;timestamp;temperature;humidity
7572;DHT22;3827;49.928;8.548;2022-08-21T00:00:23;16.10;99.90
7572;DHT22;3827;49.928;8.548;2022-08-21T00:02:53;16.10;99.90
7572;DHT22;3827;49.928;8.548;2022-08-21T00:05:22;16.10;99.90
7572;DHT22;3827;49.928;8.548;2022-08-21T00:07:49;16.20;99.90
7572;DHT22;3827;49.928;8.548;2022-08-21T00:10:18;16.20;99.90
7572;DHT22;3827;49.928;8.548;2022-08-21T00:12:46;16.20;99.90
7572;DHT22;3827;49.928;8.548;2022-08-21T00:15:17;16.20;99.90
7572;DHT22;3827;49.928;8.548;2022-08-21T00:17:44;16.10;99.90
7572;DHT22;3827;49.928;8.548;2022-08-21T00:20:13;16.30;99.90
7572;DHT22;3827;49.928;8.548;2022-08-21T00:22:40;16.10;99.90
7572;DHT22;3827;49.928;8.548;2022-08-21T00:25:08;16.10;99.90
7572;DHT22;3827;49.928;8.548;2022-08-21T00:27:37;16.10;99.90
7572;DHT22;3827;49.928;8.548;2022-08-21T00:30:05;16.10;99.90
7572;DHT22;3827;49.928;8.548;2022-08-21T00:32:33;16.00;99.90
7572;DHT22;3827;49.928;8.548;2022-08-21T00:35:00;16.00;99.90
7572;DHT22;3827;49.928;8.548;2022-08-21T00:37:27;16.00;99.90
7572;DHT22;3827;49.928;8.548;2022-08-21T00:39:54;15.90;99.90
7572;DHT22;3827;49.928;8.548;2022-08-21T00:42:21;16.10;99.90
7572;DHT22;3827;49.928;8.548;2022-08-21T00:44:49;15.90;99.90
7572;DHT22;3827;49.928;8.548;2022-08-21T00:47:17;15.60;99.90
7572;DHT22;3827;49.928;8.548;2022-08-21T00:49:44;15.60;99.90
7572;DHT22;3827;49.928;8.548;2022-08-21T00:52:15;15.50;99.90
7572;DHT22;3827;49.928;8.548;2022-08-21T00:54:44;15.50;99.90
7572;DHT22;3827;49.928;8.548;2022-08-21T00:57:15;15.40;99.90
7572;DHT22;3827;49.928;8.548;2022-08-21T00:59:45;15.50;99.90
7572;DHT22;3827;49.928;8.548;2022-08-21T01:02:16;15.40;99.90
7572;DHT22;3827;49.928;8.548;2022-08-21T01:04:43;15.50;99.90
7572;DHT22;3827;49.928;8.548;2022-08-21T01:07:10;15.40;99.90
7572;DHT22;3827;49.928;8.548;2022-08-21T01:09:38;15.40;99.90
7572;DHT22;3827;49.928;8.548;2022-08-21T01:12:06;15.30;99.90
7572;DHT22;3827;49.928;8.548;2022-08-21T01:14:33;15.30;99.90
7572;DHT22;3827;49.928;8.548;2022-08-21T01:17:01;15.30;99.90
7572;DHT22;3827;49.928;8.548;2022-08-21T01:19:30;15.30;99.90
7572;DHT22;3827;49.928;8.548;2022-08-21T01:21:58;15.30;99.90
7572;DHT22;3827;49.928;8.548;2022-08-21T01:24:26;15.40;99.90
7572;DHT22;3827;49.928;8.548;2022-08-21T01:26:53;15.40;99.90
7572;DHT22;3827;49.928;8.548;2022-08-21T01:29:29;15.40;99.90
7572;DHT22;3827;49.928;8.548;2022-08-21T01:31:57;15.30;99.90
7572;DHT22;3827;49.928;8.548;2022-08-21T01:34:25;15.30;99.90
7572;DHT22;3827;49.928;8.548;2022-08-21T01:36:52;15.30;99.90
7572;DHT22;3827;49.928;8.548;2022-08-21T01:39:20;15.30;99.90
7572;DHT22;3827;49.928;8.548;2022-08-21T01:41:47;15.20;99.90
7572;DHT22;3827;49.928;8.548;2022-08-21T01:44:14;15.10;99.90
7572;DHT22;3827;49.928;8.548;2022-08-21T01:46:41;15.20;99.90
7572;DHT22;3827;49.928;8.548;2022-08-21T01:49:07;15.10;99.90
7572;DHT22;3827;49.928;8.548;2022-08-21T01:51:34;15.10;99.90
7572;DHT22;3827;49.928;8.548;2022-08-21T01:54:01;15.10;99.90
7572;DHT22;3827;49.928;8.548;2022-08-21T01:56:36;15.10;99.90
7572;DHT22;3827;49.928;8.548;2022-08-21T01:59:03;15.10;99.90
7572;DHT22;3827;49.928;8.548;2022-08-21T02:01:30;15.00;99.90
7572;DHT22;3827;49.928;8.548;2022-08-21T02:03:57;15.30;99.90
7572;DHT22;3827;49.928;8.548;2022-08-21T02:06:25;15.00;99.90
7572;DHT22;3827;49.928;8.548;2022-08-21T02:08:52;15.00;99.90
7572;DHT22;3827;49.928;8.548;2022-08-21T02:11:19;15.00;99.90
7572;DHT22;3827;49.928;8.548;2022-08-21T02:13:48;15.00;99.90
7572;DHT22;3827;49.928;8.548;2022-08-21T02:16:14;15.00;99.90
7572;DHT22;3827;49.928;8.548;2022-08-21T02:18:41;15.00;99.90
7572;DHT22;3827;49.928;8.548;2022-08-21T02:21:08;15.00;99.90
7572;DHT22;3827;49.928;8.548;2022-08-21T02:23:35;14.90;99.90
7572;DHT22;3827;49.928;8.548;2022-08-21T02:26:05;14.90;99.90
7572;DHT22;3827;49.928;8.548;2022-08-21T02:28:33;14.80;99.90
7572;DHT22;3827;49.928;8.548;2022-08-21T02:31:03;14.70;99.90
7572;DHT22;3827;49.928;8.548;2022-08-21T02:33:30;14.70;99.90
7572;DHT22;3827;49.928;8.548;2022-08-21T02:35:57;14.60;99.90
7572;DHT22;3827;49.928;8.548;2022-08-21T02:38:27;14.70;99.90
7572;DHT22;3827;49.928;8.548;2022-08-21T02:40:55;14.70;99.90
7572;DHT22;3827;49.928;8.548;2022-08-21T02:43:24;14.60;99.90
7572;DHT22;3827;49.928;8.548;2022-08-21T02:45:52;14.70;99.90
7572;DHT22;3827;49.928;8.548;2022-08-21T02:48:23;14.70;99.90
7572;DHT22;3827;49.928;8.548;2022-08-21T02:50:55;14.70;99.90
7572;DHT22;3827;49.928;8.548;2022-08-21T02:53:23;14.60;99.90
7572;DHT22;3827;49.928;8.548;2022-08-21T02:55:52;14.60;99.90
7572;DHT22;3827;49.928;8.548;2022-08-21T02:58:22;14.60;99.90
7572;DHT22;3827;49.928;8.548;2022-08-21T03:00:49;14.60;99.90
7572;DHT22;3827;49.928;8.548;2022-08-21T03:03:16;14.50;99.90
7572;DHT22;3827;49.928;8.548;2022-08-21T03:05:45;14.50;99.90
7572;DHT22;3827;49.928;8.548;2022-08-21T03:08:14;14.50;99.90
7572;DHT22;3827;49.928;8.548;2022-08-21T03:10:43;14.50;99.90
7572;DHT22;3827;49.928;8.548;2022-08-21T03:13:11;14.50;99.90
7572;DHT22;3827;49.928;8.548;2022-08-21T03:15:38;14.40;99.90
7572;DHT22;3827;49.928;8.548;2022-08-21T03:18:07;14.30;99.90
7572;DHT22;3827;49.928;8.548;2022-08-21T03:20:35;14.30;99.90
7572;DHT22;3827;49.928;8.548;2022-08-21T03:23:05;14.20;99.90
7572;DHT22;3827;49.928;8.548;2022-08-21T03:25:33;14.30;99.90
7572;DHT22;3827;49.928;8.548;2022-08-21T03:28:00;14.20;99.90
7572;DHT22;3827;49.928;8.548;2022-08-21T03:30:27;14.20;99.90
7572;DHT22;3827;49.928;8.548;2022-08-21T03:32:56;14.20;99.90
7572;DHT22;3827;49.928;8.548;2022-08-21T03:35:24;14.20;99.90
7572;DHT22;3827;49.928;8.548;2022-08-21T03:37:50;14.20;99.90
7572;DHT22;3827;49.928;8.548;2022-08-21T03:40:19;14.30;99.90
7572;DHT22;3827;49.928;8.548;2022-08-21T03:42:47;14.20;99.90
7572;DHT22;3827;49.928;8.548;2022-08-21T03:45:15;14.20;99.90
7572;DHT22;3827;49.928;8.548;2022-08-21T03:47:51;14.20;99.90
7572;DHT22;3827;49.928;8.548;2022-08-21T03:50:18;14.20;99.90
7572;DHT22;3827;49.928;8.548;2022-08-21T03:52:45;14.20;99.90
7572;DHT22;3827;49.928;8.548;2022-08-21T03:55:12;14.20;99.90
7572;DHT22;3827;49.928;8.548;2022-08-21T03:57:40;14.20;99.90
7572;DHT22;3827;49.928;8.548;2022-08-21T04:00:09;14.20;99.90
7572;DHT22;3827;49.928;8.548;2022-08-21T04:02:37;14.20;99.90
7572;DHT22;3827;49.928;8.548;2022-08-21T04:05:05;14.20;99.90
7572;DHT22;3827;49.928;8.548;2022-08-21T04:07:33;14.10;99.90
7572;DHT22;3827;49.928;8.548;2022-08-21T04:10:01;14.10;99.90
7572;DHT22;3827;49.928;8.548;2022-08-21T04:12:27;14.00;99.90
7572;DHT22;3827;49.928;8.548;2022-08-21T04:14:56;14.00;99.90
7572;DHT22;3827;49.928;8.548;2022-08-21T04:17:23;14.00;99.90
7572;DHT22;3827;49.928;8.548;2022-08-21T04:19:50;14.00;99.90
7572;DHT22;3827;49.928;8.548;2022-08-21T04:22:17;13.90;99.90
7572;DHT22;3827;49.928;8.548;2022-08-21T04:24:43;14.00;99.90
7572;DHT22;3827;49.928;8.548;2022-08-21T04:27:10;14.00;99.90
7572;DHT22;3827;49.928;8.548;2022-08-21T04:29:37;14.00;99.90
7572;DHT22;3827;49.928;8.548;2022-08-21T04:32:05;14.00;99.90
7572;DHT22;3827;49.928;8.548;2022-08-21T04:34:32;14.00;99.90
7572;DHT22;3827;49.928;8.548;2022-08-21T04:36:59;14.00;99.90
7572;DHT22;3827;49.928;8.548;2022-08-21T04:39:26;14.20;99.90
7572;DHT22;3827;49.928;8.548;2022-08-21T04:41:53;14.00;99.90
7572;DHT22;3827;49.928;8.548;2022-08-21T04:44:20;14.00;99.90
7572;DHT22;3827;49.928;8.548;2022-08-21T04:46:47;14.00;99.90
7572;DHT22;3827;49.928;8.548;2022-08-21T04:49:15;14.10;99.90
7572;DHT22;3827;49.928;8.548;2022-08-21T04:51:42;14.10;99.90
7572;DHT22;3827;49.928;8.548;2022-08-21T04:54:11;14.10;99.90
7572;DHT22;3827;49.928;8.548;2022-08-21T04:56:42;14.00;99.90
7572;DHT22;3827;49.928;8.548;2022-08-21T04:59:14;14.10;99.90
7572;DHT22;3827;49.928;8.548;2022-08-21T05:01:42;14.10;99.90
7572;DHT22;3827;49.928;8.548;2022-08-21T05:04:14;14.20;99.90
7572;DHT22;3827;49.928;8.548;2022-08-21T05:06:45;14.30;99.90
7572;DHT22;3827;49.928;8.548;2022-08-21T05:09:15;14.30;99.90
7572;DHT22;3827;49.928;8.548;2022-08-21T05:11:42;14.40;99.90
7572;DHT22;3827;49.928;8.548;2022-08-21T05:14:10;14.40;99.90
7572;DHT22;3827;49.928;8.548;2022-08-21T05:16:37;14.40;99.90
7572;DHT22;3827;49.928;8.548;2022-08-21T05:19:05;14.40;99.90
7572;DHT22;3827;49.928;8.548;2022-08-21T05:21:32;14.50;99.90
7572;DHT22;3827;49.928;8.548;2022-08-21T05:24:00;14.60;99.90
7572;DHT22;3827;49.928;8.548;2022-08-21T05:26:27;14.60;99.90
7572;DHT22;3827;49.928;8.548;2022-08-21T05:28:55;14.60;99.90
7572;DHT22;3827;49.928;8.548;2022-08-21T05:31:22;14.70;99.90
7572;DHT22;3827;49.928;8.548;2022-08-21T05:33:49;14.70;99.90
7572;DHT22;3827;49.928;8.548;2022-08-21T05:36:16;14.80;99.90
7572;DHT22;3827;49.928;8.548;2022-08-21T05:38:43;14.90;99.90
7572;DHT22;3827;49.928;8.548;2022-08-21T05:41:11;14.90;99.90
7572;DHT22;3827;49.928;8.548;2022-08-21T05:43:38;14.90;99.90
7572;DHT22;3827;49.928;8.548;2022-08-21T05:46:06;14.90;99.90
7572;DHT22;3827;49.928;8.548;2022-08-21T05:48:34;15.00;99.90
7572;DHT22;3827;49.928;8.548;2022-08-21T05:51:05;15.10;99.90
7572;DHT22;3827;49.928;8.548;2022-08-21T05:53:32;15.30;99.90
7572;DHT22;3827;49.928;8.548;2022-08-21T05:55:59;15.30;99.90
7572;DHT22;3827;49.928;8.548;2022-08-21T05:58:32;15.40;99.90
7572;DHT22;3827;49.928;8.548;2022-08-21T06:01:00;15.50;99.90
7572;DHT22;3827;49.928;8.548;2022-08-21T06:03:29;15.60;99.90
7572;DHT22;3827;49.928;8.548;2022-08-21T06:05:56;15.70;99.90
7572;DHT22;3827;49.928;8.548;2022-08-21T06:08:23;15.70;99.90
7572;DHT22;3827;49.928;8.548;2022-08-21T06:10:52;15.80;99.90
7572;DHT22;3827;49.928;8.548;2022-08-21T06:13:20;15.90;99.90
7572;DHT22;3827;49.928;8.548;2022-08-21T06:15:49;16.00;99.90
7572;DHT22;3827;49.928;8.548;2022-08-21T06:18:16;16.10;99.90
7572;DHT22;3827;49.928;8.548;2022-08-21T06:20:44;16.30;99.90
7572;DHT22;3827;49.928;8.548;2022-08-21T06:23:11;16.40;99.90
7572;DHT22;3827;49.928;8.548;2022-08-21T06:25:38;16.40;99.90
7572;DHT22;3827;49.928;8.548;2022-08-21T06:28:06;16.40;99.90
7572;DHT22;3827;49.928;8.548;2022-08-21T06:30:35;16.50;99.90
7572;DHT22;3827;49.928;8.548;2022-08-21T06:33:04;16.60;99.90
7572;DHT22;3827;49.928;8.548;2022-08-21T06:35:31;16.70;99.90
7572;DHT22;3827;49.928;8.548;2022-08-21T06:37:58;16.80;99.90
7572;DHT22;3827;49.928;8.548;2022-08-21T06:40:26;16.80;99.90
7572;DHT22;3827;49.928;8.548;2022-08-21T06:42:53;16.90;99.90
7572;DHT22;3827;49.928;8.548;2022-08-21T06:45:20;17.20;99.90
7572;DHT22;3827;49.928;8.548;2022-08-21T06:47:47;17.40;99.90
7572;DHT22;3827;49.928;8.548;2022-08-21T06:50:15;17.40;99.90
7572;DHT22;3827;49.928;8.548;2022-08-21T06:52:42;17.50;99.90
7572;DHT22;3827;49.928;8.548;2022-08-21T06:55:10;17.70;99.90
7572;DHT22;3827;49.928;8.548;2022-08-21T06:57:36;17.80;99.90
7572;DHT22;3827;49.928;8.548;2022-08-21T07:00:05;17.90;99.90
7572;DHT22;3827;49.928;8.548;2022-08-21T07:02:33;18.00;99.90
7572;DHT22;3827;49.928;8.548;2022-08-21T07:05:00;18.20;99.90
7572;DHT22;3827;49.928;8.548;2022-08-21T07:07:28;18.30;99.90
7572;DHT22;3827;49.928;8.548;2022-08-21T07:09:55;18.50;99.90
7572;DHT22;3827;49.928;8.548;2022-08-21T07:12:22;18.60;99.90
7572;DHT22;3827;49.928;8.548;2022-08-21T07:14:49;18.70;99.90
7572;DHT22;3827;49.928;8.548;2022-08-21T07:17:16;18.70;99.90
7572;DHT22;3827;49.928;8.548;2022-08-21T07:19:42;19.00;99.90
7572;DHT22;3827;49.928;8.548;2022-08-21T07:22:09;19.00;99.90
7572;DHT22;3827;49.928;8.548;2022-08-21T07:24:38;19.10;99.90
7572;DHT22;3827;49.928;8.548;2022-08-21T07:27:05;19.20;99.90
7572;DHT22;3827;49.928;8.548;2022-08-21T07:29:31;19.40;99.90
7572;DHT22;3827;49.928;8.548;2022-08-21T07:31:58;19.30;99.90
7572;DHT22;3827;49.928;8.548;2022-08-21T07:34:25;19.30;99.90
7572;DHT22;3827;49.928;8.548;2022-08-21T07:36:52;19.50;99.90
7572;DHT22;3827;49.928;8.548;2022-08-21T07:39:19;19.70;99.90
7572;DHT22;3827;49.928;8.548;2022-08-21T07:41:47;20.00;99.90
7572;DHT22;3827;49.928;8.548;2022-08-21T07:44:14;20.00;99.90
7572;DHT22;3827;49.928;8.548;2022-08-21T07:46:41;20.20;99.90
7572;DHT22;3827;49.928;8.548;2022-08-21T07:49:07;20.40;99.90
7572;DHT22;3827;49.928;8.548;2022-08-21T07:51:34;20.30;99.90
7572;DHT22;3827;49.928;8.548;2022-08-21T07:54:01;20.50;99.90
7572;DHT22;3827;49.928;8.548;2022-08-21T07:56:30;20.70;99.90
7572;DHT22;3827;49.928;8.548;2022-08-21T07:58:58;20.80;99.90
7572;DHT22;3827;49.928;8.548;2022-08-21T08:01:28;21.00;99.90
7572;DHT22;3827;49.928;8.548;2022-08-21T08:03:55;21.10;99.90
7572;DHT22;3827;49.928;8.548;2022-08-21T08:06:22;21.20;99.90
7572;DHT22;3827;49.928;8.548;2022-08-21T08:08:49;21.40;99.90
7572;DHT22;3827;49.928;8.548;2022-08-21T08:11:16;21.50;99.90
7572;DHT22;3827;49.928;8.548;2022-08-21T08:13:45;21.70;99.90
7572;DHT22;3827;49.928;8.548;2022-08-21T08:16:15;21.70;99.90
7572;DHT22;3827;49.928;8.548;2022-08-21T08:18:42;21.90;99.90
7572;DHT22;3827;49.928;8.548;2022-08-21T08:21:11;21.90;99.90
7572;DHT22;3827;49.928;8.548;2022-08-21T08:23:39;22.00;99.90
7572;DHT22;3827;49.928;8.548;2022-08-21T08:26:06;22.10;99.90
7572;DHT22;3827;49.928;8.548;2022-08-21T08:28:33;22.30;99.90
7572;DHT22;3827;49.928;8.548;2022-08-21T08:31:00;22.40;99.90
7572;DHT22;3827;49.928;8.548;2022-08-21T08:33:29;22.60;99.90
7572;DHT22;3827;49.928;8.548;2022-08-21T08:35:56;22.80;99.90
7572;DHT22;3827;49.928;8.548;2022-08-21T08:38:24;22.80;99.90
7572;DHT22;3827;49.928;8.548;2022-08-21T08:40:58;22.90;99.90
7572;DHT22;3827;49.928;8.548;2022-08-21T08:43:28;23.00;99.90
7572;DHT22;3827;49.928;8.548;2022-08-21T08:45:57;23.10;99.90
7572;DHT22;3827;49.928;8.548;2022-08-21T08:48:39;23.20;99.90
7572;DHT22;3827;49.928;8.548;2022-08-21T08:51:11;23.20;99.90
7572;DHT22;3827;49.928;8.548;2022-08-21T08:53:49;23.30;99.90
7572;DHT22;3827;49.928;8.548;2022-08-21T08:56:22;23.40;99.90
7572;DHT22;3827;49.928;8.548;2022-08-21T08:58:52;23.50;99.90
7572;DHT22;3827;49.928;8.548;2022-08-21T09:01:20;23.30;99.90
7572;DHT22;3827;49.928;8.548;2022-08-21T09:03:49;23.10;99.90
7572;DHT22;3827;49.928;8.548;2022-08-21T09:06:26;23.10;99.90
7572;DHT22;3827;49.928;8.548;2022-08-21T09:09:04;23.50;99.90
7572;DHT22;3827;49.928;8.548;2022-08-21T09:11:45;24.00;99.90
7572;DHT22;3827;49.928;8.548;2022-08-21T09:14:20;24.20;99.90
7572;DHT22;3827;49.928;8.548;2022-08-21T09:16:55;24.20;99.90
7572;DHT22;3827;49.928;8.548;2022-08-21T09:19:37;24.50;99.90
7572;DHT22;3827;49.928;8.548;2022-08-21T09:22:13;24.50;99.90
7572;DHT22;3827;49.928;8.548;2022-08-21T09:24:48;24.50;99.90
7572;DHT22;3827;49.928;8.548;2022-08-21T09:27:18;24.60;99.90
7572;DHT22;3827;49.928;8.548;2022-08-21T09:29:49;24.90;99.90
7572;DHT22;3827;49.928;8.548;2022-08-21T09:32:19;24.30;99.90
7572;DHT22;3827;49.928;8.548;2022-08-21T09:34:58;24.60;99.90
7572;DHT22;3827;49.928;8.548;2022-08-21T09:37:26;24.70;99.90
7572;DHT22;3827;49.928;8.548;2022-08-21T09:39:55;24.70;69.60
7572;DHT22;3827;49.928;8.548;2022-08-21T09:42:25;25.10;75.10
7572;DHT22;3827;49.928;8.548;2022-08-21T09:45:08;24.80;8.80
7572;DHT22;3827;49.928;8.548;2022-08-21T09:47:35;24.40;1.00
7572;DHT22;3827;49.928;8.548;2022-08-21T09:50:14;24.90;1.00
7572;DHT22;3827;49.928;8.548;2022-08-21T09:52:48;25.10;99.90
7572;DHT22;3827;49.928;8.548;2022-08-21T09:55:20;25.80;99.90
7572;DHT22;3827;49.928;8.548;2022-08-21T09:58:05;26.20;1.00
7572;DHT22;3827;49.928;8.548;2022-08-21T10:00:34;25.50;1.00
7572;DHT22;3827;49.928;8.548;2022-08-21T10:03:10;25.60;1.00
7572;DHT22;3827;49.928;8.548;2022-08-21T10:05:39;25.60;1.00
7572;DHT22;3827;49.928;8.548;2022-08-21T10:08:16;26.20;1.00
7572;DHT22;3827;49.928;8.548;2022-08-21T10:10:44;25.90;1.00
7572;DHT22;3827;49.928;8.548;2022-08-21T10:13:13;26.40;1.00
7572;DHT22;3827;49.928;8.548;2022-08-21T10:15:51;27.10;1.00
7572;DHT22;3827;49.928;8.548;2022-08-21T10:18:25;26.90;1.00
7572;DHT22;3827;49.928;8.548;2022-08-21T10:20:59;26.60;1.00
7572;DHT22;3827;49.928;8.548;2022-08-21T10:23:41;27.20;1.00
7572;DHT22;3827;49.928;8.548;2022-08-21T10:26:18;28.00;1.00
7572;DHT22;3827;49.928;8.548;2022-08-21T10:28:53;27.30;1.00
7572;DHT22;3827;49.928;8.548;2022-08-21T10:31:29;26.40;1.00
7572;DHT22;3827;49.928;8.548;2022-08-21T10:34:07;26.90;1.00
7572;DHT22;3827;49.928;8.548;2022-08-21T10:36:42;25.80;1.00
7572;DHT22;3827;49.928;8.548;2022-08-21T10:39:17;25.40;1.00
7572;DHT22;3827;49.928;8.548;2022-08-21T10:42:08;25.80;1.00
7572;DHT22;3827;49.928;8.548;2022-08-21T10:44:43;26.90;1.00
7572;DHT22;3827;49.928;8.548;2022-08-21T10:47:17;27.60;1.00
7572;DHT22;3827;49.928;8.548;2022-08-21T10:49:50;28.30;1.00
7572;DHT22;3827;49.928;8.548;2022-08-21T10:52:36;29.00;1.00
7572;DHT22;3827;49.928;8.548;2022-08-21T10:55:14;29.40;1.00
7572;DHT22;3827;49.928;8.548;2022-08-21T10:57:46;29.60;1.00
7572;DHT22;3827;49.928;8.548;2022-08-21T11:00:17;28.40;1.00
7572;DHT22;3827;49.928;8.548;2022-08-21T11:02:51;29.10;1.00
7572;DHT22;3827;49.928;8.548;2022-08-21T11:05:24;29.40;1.00
7572;DHT22;3827;49.928;8.548;2022-08-21T11:07:55;28.90;1.00
7572;DHT22;3827;49.928;8.548;2022-08-21T11:10:25;29.10;1.00
7572;DHT22;3827;49.928;8.548;2022-08-21T11:12:56;28.90;1.00
7572;DHT22;3827;49.928;8.548;2022-08-21T11:15:34;29.30;1.00
7572;DHT22;3827;49.928;8.548;2022-08-21T11:18:14;29.60;1.00
7572;DHT22;3827;49.928;8.548;2022-08-21T11:20:46;29.00;1.00
7572;DHT22;3827;49.928;8.548;2022-08-21T11:23:21;29.20;1.00
7572;DHT22;3827;49.928;8.548;2022-08-21T11:25:53;29.80;1.00
7572;DHT22;3827;49.928;8.548;2022-08-21T11:28:24;30.10;1.00
7572;DHT22;3827;49.928;8.548;2022-08-21T11:31:01;30.30;1.00
7572;DHT22;3827;49.928;8.548;2022-08-21T11:33:46;29.40;1.00
7572;DHT22;3827;49.928;8.548;2022-08-21T11:36:20;28.70;1.00
7572;DHT22;3827;49.928;8.548;2022-08-21T11:38:55;28.30;1.00
7572;DHT22;3827;49.928;8.548;2022-08-21T11:41:29;28.70;1.00
7572;DHT22;3827;49.928;8.548;2022-08-21T11:44:17;27.70;1.00
7572;DHT22;3827;49.928;8.548;2022-08-21T11:46:51;27.10;1.00
7572;DHT22;3827;49.928;8.548;2022-08-21T11:49:42;27.10;1.00
7572;DHT22;3827;49.928;8.548;2022-08-21T11:52:18;27.50;1.00
7572;DHT22;3827;49.928;8.548;2022-08-21T11:54:52;27.80;1.00
7572;DHT22;3827;49.928;8.548;2022-08-21T11:57:25;28.80;1.00
7572;DHT22;3827;49.928;8.548;2022-08-21T11:59:55;29.80;1.00
7572;DHT22;3827;49.928;8.548;2022-08-21T12:02:28;27.90;1.00
7572;DHT22;3827;49.928;8.548;2022-08-21T12:05:00;27.30;1.00
7572;DHT22;3827;49.928;8.548;2022-08-21T12:07:32;28.30;1.00
7572;DHT22;3827;49.928;8.548;2022-08-21T12:10:03;28.90;1.00
7572;DHT22;3827;49.928;8.548;2022-08-21T12:12:32;28.70;1.00
7572;DHT22;3827;49.928;8.548;2022-08-21T12:15:24;29.10;1.00
7572;DHT22;3827;49.928;8.548;2022-08-21T12:17:55;29.70;1.00
7572;DHT22;3827;49.928;8.548;2022-08-21T12:20:40;29.60;1.00
7572;DHT22;3827;49.928;8.548;2022-08-21T12:23:24;29.50;1.00
7572;DHT22;3827;49.928;8.548;2022-08-21T12:26:09;28.50;1.00
7572;DHT22;3827;49.928;8.548;2022-08-21T12:28:37;28.90;1.00
7572;DHT22;3827;49.928;8.548;2022-08-21T12:31:04;28.20;1.00
7572;DHT22;3827;49.928;8.548;2022-08-21T12:33:32;29.20;1.00
7572;DHT22;3827;49.928;8.548;2022-08-21T12:36:07;30.30;1.00
7572;DHT22;3827;49.928;8.548;2022-08-21T12:38:45;31.00;1.00
7572;DHT22;3827;49.928;8.548;2022-08-21T12:41:19;31.50;1.00
7572;DHT22;3827;49.928;8.548;2022-08-21T12:43:51;31.70;1.00
7572;DHT22;3827;49.928;8.548;2022-08-21T12:46:22;31.40;1.00
7572;DHT22;3827;49.928;8.548;2022-08-21T12:48:55;31.30;1.00
7572;DHT22;3827;49.928;8.548;2022-08-21T12:51:27;30.60;1.00
7572;DHT22;3827;49.928;8.548;2022-08-21T12:53:57;31.30;1.00
7572;DHT22;3827;49.928;8.548;2022-08-21T12:56:32;32.10;1.00
7572;DHT22;3827;49.928;8.548;2022-08-21T12:59:03;32.30;1.00
7572;DHT22;3827;49.928;8.548;2022-08-21T13:01:33;31.30;1.00
7572;DHT22;3827;49.928;8.548;2022-08-21T13:04:06;30.60;1.00
7572;DHT22;3827;49.928;8.548;2022-08-21T13:06:39;30.60;1.00
7572;DHT22;3827;49.928;8.548;2022-08-21T13:09:11;31.00;1.00
7572;DHT22;3827;49.928;8.548;2022-08-21T13:11:41;31.60;1.00
7572;DHT22;3827;49.928;8.548;2022-08-21T13:14:14;30.40;1.00
7572;DHT22;3827;49.928;8.548;2022-08-21T13:16:44;29.10;1.00
7572;DHT22;3827;49.928;8.548;2022-08-21T13:19:17;30.20;1.00
7572;DHT22;3827;49.928;8.548;2022-08-21T13:21:44;30.40;1.00
7572;DHT22;3827;49.928;8.548;2022-08-21T13:24:16;30.40;1.00
7572;DHT22;3827;49.928;8.548;2022-08-21T13:26:45;31.20;1.00
7572;DHT22;3827;49.928;8.548;2022-08-21T13:29:16;31.10;1.00
7572;DHT22;3827;49.928;8.548;2022-08-21T13:31:47;31.30;1.00
7572;DHT22;3827;49.928;8.548;2022-08-21T13:34:15;31.90;1.00
7572;DHT22;3827;49.928;8.548;2022-08-21T13:36:44;31.10;1.00
7572;DHT22;3827;49.928;8.548;2022-08-21T13:39:14;31.50;1.00
7572;DHT22;3827;49.928;8.548;2022-08-21T13:41:46;32.30;1.00
7572;DHT22;3827;49.928;8.548;2022-08-21T13:44:16;32.80;1.00
7572;DHT22;3827;49.928;8.548;2022-08-21T13:46:44;33.20;1.00
7572;DHT22;3827;49.928;8.548;2022-08-21T13:49:14;31.50;1.00
7572;DHT22;3827;49.928;8.548;2022-08-21T13:51:42;32.30;1.00
7572;DHT22;3827;49.928;8.548;2022-08-21T13:54:21;30.60;1.00
7572;DHT22;3827;49.928;8.548;2022-08-21T13:56:50;30.30;1.00
7572;DHT22;3827;49.928;8.548;2022-08-21T13:59:25;31.40;1.00
7572;DHT22;3827;49.928;8.548;2022-08-21T14:01:55;32.20;1.00
7572;DHT22;3827;49.928;8.548;2022-08-21T14:04:29;32.50;1.00
7572;DHT22;3827;49.928;8.548;2022-08-21T14:06:57;33.20;1.00
7572;DHT22;3827;49.928;8.548;2022-08-21T14:09:28;33.50;1.00
7572;DHT22;3827;49.928;8.548;2022-08-21T14:11:58;34.00;1.00
7572;DHT22;3827;49.928;8.548;2022-08-21T14:14:29;33.80;1.00
7572;DHT22;3827;49.928;8.548;2022-08-21T14:16:59;34.00;1.00
7572;DHT22;3827;49.928;8.548;2022-08-21T14:19:28;34.10;1.00
7572;DHT22;3827;49.928;8.548;2022-08-21T14:22:01;33.70;1.00
7572;DHT22;3827;49.928;8.548;2022-08-21T14:24:47;33.00;1.00
7572;DHT22;3827;49.928;8.548;2022-08-21T14:27:17;32.50;1.00
7572;DHT22;3827;49.928;8.548;2022-08-21T14:29:44;32.90;1.00
7572;DHT22;3827;49.928;8.548;2022-08-21T14:32:14;32.70;1.00
7572;DHT22;3827;49.928;8.548;2022-08-21T14:34:41;33.20;1.00
7572;DHT22;3827;49.928;8.548;2022-08-21T14:37:08;33.40;1.00
7572;DHT22;3827;49.928;8.548;2022-08-21T14:39:35;33.70;1.00
7572;DHT22;3827;49.928;8.548;2022-08-21T14:42:02;33.80;1.00
7572;DHT22;3827;49.928;8.548;2022-08-21T14:44:30;33.60;1.00
7572;DHT22;3827;49.928;8.548;2022-08-21T14:46:59;31.90;1.00
7572;DHT22;3827;49.928;8.548;2022-08-21T14:49:27;30.80;1.00
7572;DHT22;3827;49.928;8.548;2022-08-21T14:51:55;31.40;1.00
7572;DHT22;3827;49.928;8.548;2022-08-21T14:54:23;31.60;1.00
7572;DHT22;3827;49.928;8.548;2022-08-21T14:56:50;31.50;1.00
7572;DHT22;3827;49.928;8.548;2022-08-21T14:59:17;31.00;1.00
7572;DHT22;3827;49.928;8.548;2022-08-21T15:01:46;31.10;1.00
7572;DHT22;3827;49.928;8.548;2022-08-21T15:04:14;30.60;1.00
7572;DHT22;3827;49.928;8.548;2022-08-21T15:06:41;30.50;1.00
7572;DHT22;3827;49.928;8.548;2022-08-21T15:09:08;30.00;1.00
7572;DHT22;3827;49.928;8.548;2022-08-21T15:11:35;29.70;1.00
7572;DHT22;3827;49.928;8.548;2022-08-21T15:14:06;29.70;1.00
7572;DHT22;3827;49.928;8.548;2022-08-21T15:16:34;30.30;1.00
7572;DHT22;3827;49.928;8.548;2022-08-21T15:19:03;30.70;99.90
7572;DHT22;3827;49.928;8.548;2022-08-21T15:21:30;31.00;99.90
7572;DHT22;3827;49.928;8.548;2022-08-21T15:23:56;30.90;1.00
7572;DHT22;3827;49.928;8.548;2022-08-21T15:26:23;31.00;1.00
7572;DHT22;3827;49.928;8.548;2022-08-21T15:28:51;31.20;99.90
7572;DHT22;3827;49.928;8.548;2022-08-21T15:31:17;30.90;1.00
7572;DHT22;3827;49.928;8.548;2022-08-21T15:33:44;30.70;99.90
7572;DHT22;3827;49.928;8.548;2022-08-21T15:36:12;30.60;99.90
7572;DHT22;3827;49.928;8.548;2022-08-21T15:38:39;30.50;99.90
7572;DHT22;3827;49.928;8.548;2022-08-21T15:41:06;30.70;99.90
7572;DHT22;3827;49.928;8.548;2022-08-21T15:43:40;30.90;99.90
7572;DHT22;3827;49.928;8.548;2022-08-21T15:46:10;30.70;99.90
7572;DHT22;3827;49.928;8.548;2022-08-21T15:48:39;30.80;99.90
7572;DHT22;3827;49.928;8.548;2022-08-21T15:51:05;30.40;99.90
7572;DHT22;3827;49.928;8.548;2022-08-21T15:53:34;30.30;99.90
7572;DHT22;3827;49.928;8.548;2022-08-21T15:56:04;29.90;99.90
7572;DHT22;3827;49.928;8.548;2022-08-21T15:58:31;30.20;99.90
7572;DHT22;3827;49.928;8.548;2022-08-21T16:01:00;30.30;99.90
7572;DHT22;3827;49.928;8.548;2022-08-21T16:03:27;30.10;99.90
7572;DHT22;3827;49.928;8.548;2022-08-21T16:05:54;29.90;99.90
7572;DHT22;3827;49.928;8.548;2022-08-21T16:08:22;29.90;99.90
7572;DHT22;3827;49.928;8.548;2022-08-21T16:10:51;29.70;99.90
7572;DHT22;3827;49.928;8.548;2022-08-21T16:13:20;29.90;99.90
7572;DHT22;3827;49.928;8.548;2022-08-21T16:15:49;30.10;99.90
7572;DHT22;3827;49.928;8.548;2022-08-21T16:18:17;30.20;99.90
7572;DHT22;3827;49.928;8.548;2022-08-21T16:20:44;30.10;99.90
7572;DHT22;3827;49.928;8.548;2022-08-21T16:23:11;29.90;99.90